Time;durP1;ratioP1;P1;durP2;ratioP2;P2;SDS_P1;SDS_P2;PMS_P1;PMS_P2;Temp;Humidity;BMP_temperature;BMP_pressure;BME280_temperature;BME280_humidity;BME280_pressure;Samples;Min_cycle;Max_cycle;Signal;HPM_P1;HPM_P2
2023/06/20 00:01:32;;;;;;;6.03;3.75;;;20.10;99.90;;;;;;5079970;28;20484;-32
2023/06/20 00:03:58;;;;;;;7.68;3.75;;;20.10;99.90;;;;;;5083930;28;20059;-31
2023/06/20 00:06:23;;;;;;;4.30;3.90;;;20.10;99.90;;;;;;5070642;28;20028;-32
2023/06/20 00:08:49;;;;;;;6.53;3.67;;;20.20;99.90;;;;;;5082000;28;20012;-33
2023/06/20 00:11:14;;;;;;;6.85;4.00;;;20.00;99.90;;;;;;5082892;28;20604;-36
2023/06/20 00:13:43;;;;;;;4.70;3.95;;;20.00;99.90;;;;;;5083013;28;20028;-29
2023/06/20 00:16:09;;;;;;;5.22;3.88;;;19.90;99.90;;;;;;5083878;28;20028;-32
2023/06/20 00:18:35;;;;;;;5.50;3.85;;;19.80;99.90;;;;;;5083691;28;20028;-28
2023/06/20 00:21:01;;;;;;;5.90;3.97;;;19.70;99.90;;;;;;5083176;28;20040;-39
2023/06/20 00:23:29;;;;;;;4.60;3.92;;;19.80;99.90;;;;;;5074281;28;20039;-38
2023/06/20 00:25:55;;;;;;;6.10;3.75;;;19.60;99.90;;;;;;5082274;28;20032;-37
2023/06/20 00:28:21;;;;;;;4.47;4.05;;;19.50;99.90;;;;;;5079277;28;20078;-39
2023/06/20 00:30:47;;;;;;;4.57;3.70;;;19.50;99.90;;;;;;5079449;28;20665;-39
2023/06/20 00:33:13;;;;;;;6.43;4.32;;;19.50;99.90;;;;;;5079666;28;20040;-39
2023/06/20 00:35:38;;;;;;;6.07;4.05;;;19.10;99.90;;;;;;5078695;28;20073;-38
2023/06/20 00:38:04;;;;;;;6.65;4.10;;;19.10;99.90;;;;;;5078669;28;20028;-36
2023/06/20 00:40:30;;;;;;;4.78;4.28;;;18.90;99.90;;;;;;5082417;28;20032;-39
2023/06/20 00:42:56;;;;;;;4.82;4.32;;;18.90;99.90;;;;;;5079027;28;20059;-39
2023/06/20 00:45:30;;;;;;;6.30;4.47;;;18.90;99.90;;;;;;5080502;28;20028;-39
2023/06/20 00:47:58;;;;;;;6.13;4.35;;;18.90;99.90;;;;;;5080614;28;20044;-40
2023/06/20 00:50:27;;;;;;;5.70;4.10;;;18.20;99.90;;;;;;5077412;28;20099;-34
2023/06/20 00:53:06;;;;;;;4.82;3.90;;;18.10;99.90;;;;;;5080008;28;20095;-40
2023/06/20 00:55:34;;;;;;;6.47;4.22;;;17.80;99.90;;;;;;5078040;28;20389;-38
2023/06/20 00:58:01;;;;;;;5.95;4.32;;;17.80;99.90;;;;;;5067658;28;20430;-41
2023/06/20 01:00:32;;;;;;;6.18;4.32;;;17.90;99.90;;;;;;5078730;28;20040;-32
2023/06/20 01:03:03;;;;;;;4.80;4.05;;;18.20;99.90;;;;;;5076128;28;20066;-32
2023/06/20 01:05:30;;;;;;;5.72;4.45;;;18.20;99.90;;;;;;5080734;28;20024;-30
2023/06/20 01:08:28;;;;;;;6.00;4.07;;;18.30;99.90;;;;;;5078195;28;20036;-32
2023/06/20 01:11:05;;;;;;;5.95;4.10;;;18.40;99.90;;;;;;5079319;28;20024;-31
2023/06/20 01:13:46;;;;;;;4.28;3.65;;;18.30;99.90;;;;;;5082013;28;20024;-31
2023/06/20 01:16:11;;;;;;;4.82;4.00;;;18.40;99.90;;;;;;5080198;28;20113;-32
2023/06/20 01:19:06;;;;;;;6.30;3.90;;;18.40;99.90;;;;;;5083457;28;20442;-32
2023/06/20 01:21:43;;;;;;;5.32;3.55;;;18.60;99.90;;;;;;5082671;28;20118;-32
2023/06/20 01:24:19;;;;;;;6.68;4.00;;;18.60;99.90;;;;;;5074692;28;20036;-30
2023/06/20 01:26:53;;;;;;;4.18;3.78;;;18.50;99.90;;;;;;5078369;28;20032;-31
2023/06/20 01:29:36;;;;;;;3.75;3.08;;;18.60;99.90;;;;;;5085330;28;20424;-32
2023/06/20 01:32:06;;;;;;;5.68;3.90;;;18.60;99.90;;;;;;5089111;28;20040;-35
2023/06/20 01:34:37;;;;;;;4.43;3.70;;;18.50;99.90;;;;;;5087126;28;20029;-32
2023/06/20 01:37:06;;;;;;;3.90;3.30;;;18.50;99.90;;;;;;5082768;28;20024;-33
2023/06/20 01:39:39;;;;;;;5.00;3.95;;;18.50;99.90;;;;;;5081881;28;20021;-32
2023/06/20 01:42:05;;;;;;;4.78;3.70;;;18.00;99.90;;;;;;5084712;28;20030;-34
2023/06/20 01:44:33;;;;;;;5.63;4.20;;;17.80;99.90;;;;;;5086504;28;20025;-33
2023/06/20 01:47:01;;;;;;;5.20;4.10;;;17.20;99.90;;;;;;5082813;28;20415;-33
2023/06/20 01:49:27;;;;;;;4.27;3.70;;;17.40;99.90;;;;;;5085249;28;20017;-34
2023/06/20 01:51:55;;;;;;;5.25;4.20;;;17.30;99.90;;;;;;5082079;28;20062;-32
2023/06/20 01:54:24;;;;;;;5.63;3.97;;;17.50;99.90;;;;;;5081564;28;20406;-34
2023/06/20 01:56:50;;;;;;;;;;;17.60;99.90;;;;;;5081765;28;20465;-35
2023/06/20 01:59:17;;;;;;;4.25;3.53;;;17.70;99.90;;;;;;5080197;28;20324;-34
2023/06/20 02:01:45;;;;;;;4.85;3.65;;;17.80;99.90;;;;;;5081078;28;20090;-32
2023/06/20 02:04:11;;;;;;;4.82;4.13;;;17.80;99.90;;;;;;5081940;28;20032;-33
2023/06/20 02:06:38;;;;;;;5.35;3.67;;;17.90;99.90;;;;;;5082570;28;20074;-33
2023/06/20 02:09:04;;;;;;;4.65;3.70;;;18.00;99.90;;;;;;5080210;28;20638;-32
2023/06/20 02:11:30;;;;;;;7.18;4.28;;;18.10;99.90;;;;;;5079078;28;20085;-33
2023/06/20 02:13:57;;;;;;;5.05;4.00;;;18.10;99.90;;;;;;5082797;28;20036;-33
2023/06/20 02:16:24;;;;;;;6.82;5.00;;;18.20;99.90;;;;;;5082578;28;20086;-35
2023/06/20 02:18:50;;;;;;;5.78;4.75;;;18.20;99.90;;;;;;5078902;28;20028;-32
2023/06/20 02:21:22;;;;;;;7.60;4.97;;;18.30;99.90;;;;;;5082329;28;20409;-33
2023/06/20 02:23:52;;;;;;;5.53;4.38;;;18.30;99.90;;;;;;5084775;28;20501;-37
2023/06/20 02:26:21;;;;;;;5.72;4.57;;;18.40;99.90;;;;;;5084039;28;20048;-35
2023/06/20 02:28:48;;;;;;;;;;;18.40;99.90;;;;;;5081087;28;20035;-34
2023/06/20 02:31:16;;;;;;;5.90;4.85;;;18.40;99.90;;;;;;5078742;28;19969;-31
2023/06/20 02:33:43;;;;;;;6.80;5.00;;;18.40;99.90;;;;;;5081594;28;20055;-33
2023/06/20 02:36:09;;;;;;;7.10;5.28;;;18.50;99.90;;;;;;5079337;28;20181;-33
2023/06/20 02:38:35;;;;;;;5.60;5.00;;;18.50;99.90;;;;;;5076358;28;20036;-32
2023/06/20 02:41:01;;;;;;;7.35;5.45;;;18.50;99.90;;;;;;5079076;28;20054;-35
2023/06/20 02:43:28;;;;;;;5.95;5.35;;;18.60;99.90;;;;;;5080819;28;20032;-33
2023/06/20 02:46:46;;;;;;;6.43;4.78;;;18.60;99.90;;;;;;5079211;28;20032;-33
2023/06/20 02:49:22;;;;;;;5.90;4.90;;;18.70;99.90;;;;;;5022416;28;20059;-33
2023/06/20 02:52:14;;;;;;;7.32;5.03;;;18.60;99.90;;;;;;5077240;28;20124;-35
2023/06/20 02:55:09;;;;;;;7.53;4.68;;;18.70;99.90;;;;;;5078006;28;20029;-34
2023/06/20 02:57:39;;;;;;;6.15;5.00;;;18.70;99.90;;;;;;5078487;28;20045;-32
2023/06/20 03:00:09;;;;;;;6.90;5.13;;;18.70;99.90;;;;;;5080740;28;20534;-34
2023/06/20 03:02:41;;;;;;;6.47;4.47;;;18.80;99.90;;;;;;5080144;28;20111;-33
2023/06/20 03:05:11;;;;;;;6.68;4.88;;;18.80;99.90;;;;;;5084814;28;20036;-33
2023/06/20 03:07:37;;;;;;;6.72;5.18;;;18.80;99.90;;;;;;5084667;28;20047;-33
2023/06/20 03:10:06;;;;;;;5.88;5.10;;;18.80;99.90;;;;;;5085131;28;20031;-33
2023/06/20 03:12:31;;;;;;;5.35;4.63;;;18.80;99.90;;;;;;5079510;28;20024;-33
2023/06/20 03:14:57;;;;;;;7.15;4.75;;;18.90;99.90;;;;;;5085481;28;20486;-35
2023/06/20 03:17:23;;;;;;;8.15;4.85;;;18.90;99.90;;;;;;5080875;28;20032;-32
2023/06/20 03:19:49;;;;;;;5.57;4.45;;;18.90;99.90;;;;;;5083975;28;20382;-41
2023/06/20 03:22:14;;;;;;;6.85;4.70;;;18.90;99.90;;;;;;5081366;28;20104;-39
2023/06/20 03:24:40;;;;;;;6.43;4.20;;;18.90;99.90;;;;;;5084259;28;20127;-41
2023/06/20 03:27:06;;;;;;;5.88;4.28;;;18.90;99.90;;;;;;5069158;28;20039;-39
2023/06/20 03:29:32;;;;;;;6.72;4.90;;;18.90;99.90;;;;;;5082671;28;20044;-39
2023/06/20 03:31:58;;;;;;;5.40;4.65;;;19.00;99.90;;;;;;5080156;28;20389;-39
2023/06/20 03:34:24;;;;;;;5.88;4.60;;;18.90;99.90;;;;;;5083217;28;20024;-35
2023/06/20 03:36:49;;;;;;;6.07;4.95;;;19.00;99.90;;;;;;5084735;28;20032;-41
2023/06/20 03:39:15;;;;;;;6.00;4.53;;;19.00;99.90;;;;;;5082324;28;20020;-40
2023/06/20 03:41:41;;;;;;;5.15;4.65;;;19.00;99.90;;;;;;5076128;28;20032;-42
2023/06/20 03:44:06;;;;;;;6.43;4.18;;;19.00;99.90;;;;;;5080368;28;20035;-40
2023/06/20 03:46:32;;;;;;;6.65;4.70;;;19.00;99.90;;;;;;5073053;28;20040;-39
2023/06/20 03:48:57;;;;;;;6.13;4.40;;;19.10;99.90;;;;;;5080859;28;20027;-42
2023/06/20 03:51:23;;;;;;;4.95;4.20;;;19.10;99.90;;;;;;5081045;28;20569;-41
2023/06/20 03:53:49;;;;;;;7.32;4.57;;;19.10;99.90;;;;;;5080857;28;20038;-41
2023/06/20 03:56:14;;;;;;;5.65;4.40;;;19.10;99.90;;;;;;5081438;28;20036;-38
2023/06/20 03:58:40;;;;;;;4.82;4.07;;;19.10;99.90;;;;;;5080930;28;20028;-40
2023/06/20 04:01:06;;;;;;;4.65;4.07;;;19.20;99.90;;;;;;5083169;28;20044;-40
2023/06/20 04:03:32;;;;;;;5.20;3.85;;;19.20;99.90;;;;;;5082881;28;20127;-40
2023/06/20 04:06:01;;;;;;;5.82;4.28;;;19.20;99.90;;;;;;5078526;28;20130;-42
2023/06/20 04:08:27;;;;;;;4.97;4.13;;;19.20;99.90;;;;;;5079386;28;20061;-36
2023/06/20 04:10:53;;;;;;;6.30;3.95;;;19.30;99.90;;;;;;5079406;28;20068;-38
2023/06/20 04:13:19;;;;;;;6.55;4.18;;;19.30;99.90;;;;;;5083224;28;20048;-42
2023/06/20 04:15:44;;;;;;;4.72;4.25;;;19.30;99.90;;;;;;5077983;28;20107;-40
2023/06/20 04:18:10;;;;;;;7.00;3.75;;;19.30;99.90;;;;;;5079662;28;20091;-35
2023/06/20 04:20:36;;;;;;;4.80;4.32;;;19.30;99.90;;;;;;5076800;28;20036;-38
2023/06/20 04:23:02;;;;;;;4.88;3.95;;;19.30;99.90;;;;;;5077303;28;20035;-39
2023/06/20 04:25:27;;;;;;;5.28;4.03;;;19.30;99.90;;;;;;5076274;28;20032;-41
2023/06/20 04:27:56;;;;;;;4.78;4.05;;;19.30;99.90;;;;;;5074777;28;20040;-40
2023/06/20 04:30:24;;;;;;;6.15;4.25;;;19.30;99.90;;;;;;5080460;28;20048;-33
2023/06/20 04:32:53;;;;;;;5.00;4.10;;;19.30;99.90;;;;;;5079037;28;20073;-30
2023/06/20 04:35:19;;;;;;;5.07;4.00;;;19.40;99.90;;;;;;5077683;28;20382;-30
2023/06/20 04:37:48;;;;;;;4.28;3.58;;;19.40;99.90;;;;;;5080703;28;20024;-31
2023/06/20 04:40:14;;;;;;;4.55;3.85;;;19.50;99.90;;;;;;5069464;28;20497;-30
2023/06/20 04:42:40;;;;;;;3.85;3.33;;;19.60;99.90;;;;;;5084425;28;20028;-31
2023/06/20 04:45:08;;;;;;;6.25;3.70;;;19.70;99.90;;;;;;5081907;28;20036;-34
2023/06/20 04:47:33;;;;;;;;;;;19.70;99.90;;;;;;5082699;28;20024;-32
2023/06/20 04:50:03;;;;;;;5.78;3.55;;;19.70;99.90;;;;;;5081430;28;19919;-30
2023/06/20 04:52:30;;;;;;;4.60;3.58;;;19.80;99.90;;;;;;5066302;28;20067;-34
2023/06/20 04:55:02;;;;;;;5.63;3.42;;;19.80;99.90;;;;;;5065913;28;20035;-31
2023/06/20 04:57:31;;;;;;;3.20;2.90;;;19.90;99.90;;;;;;5068278;28;20027;-31
2023/06/20 04:59:57;;;;;;;6.30;3.90;;;20.00;99.90;;;;;;5065052;28;20033;-30
2023/06/20 05:02:26;;;;;;;3.47;3.10;;;19.90;99.90;;;;;;5063280;28;20047;-30
2023/06/20 05:04:52;;;;;;;3.03;2.70;;;19.90;99.90;;;;;;5064271;28;20024;-30
2023/06/20 05:07:18;;;;;;;4.65;3.20;;;20.00;99.90;;;;;;5062528;28;20254;-31
2023/06/20 05:09:44;;;;;;;4.32;3.00;;;20.00;99.90;;;;;;5049302;28;20469;-33
2023/06/20 05:12:10;;;;;;;5.13;3.33;;;20.00;99.90;;;;;;5060959;28;20013;-30
2023/06/20 05:14:35;;;;;;;3.63;3.05;;;20.00;99.90;;;;;;5066722;28;20052;-30
2023/06/20 05:17:01;;;;;;;3.92;3.00;;;20.00;99.90;;;;;;5068020;28;20371;-30
2023/06/20 05:19:26;;;;;;;4.05;3.45;;;20.00;99.90;;;;;;5068585;28;20039;-30
2023/06/20 05:21:52;;;;;;;4.47;3.15;;;20.00;99.90;;;;;;5066264;28;20398;-31
2023/06/20 05:24:18;;;;;;;3.80;3.15;;;20.10;99.90;;;;;;5068945;28;20075;-30
2023/06/20 05:26:43;;;;;;;3.72;3.22;;;20.10;99.90;;;;;;5064379;28;20036;-30
2023/06/20 05:29:09;;;;;;;3.90;3.50;;;20.20;99.90;;;;;;5057948;28;20025;-30
2023/06/20 05:31:40;;;;;;;3.40;3.10;;;20.20;99.90;;;;;;5061334;28;20021;-30
2023/06/20 05:34:06;;;;;;;3.75;3.22;;;20.30;99.90;;;;;;5066711;28;20453;-30
2023/06/20 05:36:31;;;;;;;4.95;2.92;;;20.30;99.90;;;;;;5062102;28;20052;-36
2023/06/20 05:38:58;;;;;;;3.60;3.10;;;20.30;99.90;;;;;;5068537;28;20097;-30
2023/06/20 05:41:26;;;;;;;4.05;3.28;;;20.40;99.90;;;;;;5061624;28;20017;-33
2023/06/20 05:43:52;;;;;;;3.85;3.40;;;20.40;99.90;;;;;;5063391;28;20214;-34
2023/06/20 05:46:18;;;;;;;5.15;3.50;;;20.40;99.90;;;;;;5060695;28;20100;-34
2023/06/20 05:48:48;;;;;;;3.70;3.40;;;20.30;99.90;;;;;;5062134;28;20083;-32
2023/06/20 05:51:14;;;;;;;4.43;3.33;;;20.30;99.90;;;;;;5068627;28;20051;-31
2023/06/20 05:53:43;;;;;;;3.65;3.30;;;20.30;99.90;;;;;;5083377;28;20025;-33
2023/06/20 05:56:09;;;;;;;4.35;3.58;;;20.20;99.90;;;;;;5091287;28;20036;-33
2023/06/20 05:58:36;;;;;;;4.07;3.17;;;20.20;99.90;;;;;;5080719;28;20033;-33
2023/06/20 06:01:04;;;;;;;3.67;3.28;;;20.20;99.90;;;;;;5090249;28;20038;-32
2023/06/20 06:03:32;;;;;;;4.45;3.30;;;20.20;99.90;;;;;;5083716;28;20436;-33
2023/06/20 06:05:59;;;;;;;3.97;3.28;;;20.10;99.90;;;;;;5088129;28;20058;-32
2023/06/20 06:08:25;;;;;;;4.13;3.08;;;20.20;99.90;;;;;;5083535;28;20481;-32
2023/06/20 06:10:52;;;;;;;3.63;3.17;;;20.20;99.90;;;;;;5083213;28;20020;-33
2023/06/20 06:13:18;;;;;;;4.03;3.15;;;20.20;99.90;;;;;;5084771;28;20032;-32
2023/06/20 06:15:43;;;;;;;4.30;3.78;;;20.30;99.90;;;;;;5078968;28;20035;-32
2023/06/20 06:18:09;;;;;;;4.95;3.63;;;20.20;99.90;;;;;;5084562;28;20082;-33
2023/06/20 06:20:35;;;;;;;4.30;3.90;;;20.40;99.90;;;;;;5087976;28;20024;-35
2023/06/20 06:23:01;;;;;;;4.45;3.85;;;20.60;99.90;;;;;;5086940;28;21256;-34
2023/06/20 06:25:26;;;;;;;3.78;3.38;;;20.80;99.90;;;;;;5086117;28;20044;-32
2023/06/20 06:27:52;;;;;;;4.07;3.67;;;20.90;99.90;;;;;;5085545;28;20134;-35
2023/06/20 06:30:18;;;;;;;4.20;3.80;;;20.90;99.90;;;;;;5082761;28;20021;-35
2023/06/20 06:32:47;;;;;;;4.30;3.53;;;20.90;99.90;;;;;;5080904;28;20119;-33
2023/06/20 06:35:15;;;;;;;5.63;3.53;;;21.00;99.90;;;;;;5078761;28;20040;-32
2023/06/20 06:37:40;;;;;;;4.45;3.50;;;21.10;99.90;;;;;;5079348;28;20899;-34
2023/06/20 06:40:10;;;;;;;4.05;3.42;;;21.20;99.90;;;;;;5084606;28;20040;-32
2023/06/20 06:42:36;;;;;;;4.60;3.45;;;21.30;99.90;;;;;;5088170;28;20038;-33
2023/06/20 06:45:03;;;;;;;3.63;3.13;;;21.40;99.90;;;;;;5092133;28;20110;-35
2023/06/20 06:47:29;;;;;;;4.55;3.10;;;21.40;99.90;;;;;;5072833;28;20087;-32
2023/06/20 06:49:54;;;;;;;7.00;3.28;;;21.50;99.90;;;;;;5089556;28;20032;-30
2023/06/20 06:52:21;;;;;;;3.40;3.10;;;21.60;99.90;;;;;;5083526;28;20075;-29
2023/06/20 06:54:46;;;;;;;4.38;3.13;;;21.80;99.90;;;;;;5071513;28;20767;-34
2023/06/20 06:57:12;;;;;;;4.03;3.40;;;21.80;99.90;;;;;;5072363;28;20114;-31
2023/06/20 06:59:38;;;;;;;3.50;3.17;;;21.80;99.90;;;;;;5069124;28;20566;-29
2023/06/20 07:02:07;;;;;;;5.07;3.22;;;21.80;99.90;;;;;;5084495;28;20036;-36
2023/06/20 07:04:33;;;;;;;4.32;3.70;;;21.70;99.90;;;;;;5082921;28;20764;-33
2023/06/20 07:06:59;;;;;;;4.70;3.10;;;21.70;99.90;;;;;;5072737;28;20315;-30
2023/06/20 07:09:24;;;;;;;7.78;3.42;;;21.70;99.90;;;;;;5072977;28;20020;-31
2023/06/20 07:11:50;;;;;;;4.65;3.28;;;21.90;99.90;;;;;;5079998;28;20013;-30
2023/06/20 07:14:15;;;;;;;6.72;4.32;;;22.20;99.90;;;;;;5069834;28;20082;-30
2023/06/20 07:16:41;;;;;;;3.58;3.08;;;22.60;99.90;;;;;;5081331;28;20028;-33
2023/06/20 07:19:07;;;;;;;5.25;2.80;;;23.00;99.90;;;;;;5079676;28;20029;-32
2023/06/20 07:21:33;;;;;;;4.03;3.47;;;23.20;99.90;;;;;;5081030;28;20481;-30
2023/06/20 07:23:59;;;;;;;3.47;3.13;;;23.30;99.90;;;;;;5084346;28;20035;-30
2023/06/20 07:26:24;;;;;;;4.82;2.78;;;23.40;99.90;;;;;;5075680;28;20059;-30
2023/06/20 07:28:51;;;;;;;5.30;3.08;;;23.60;99.90;;;;;;5068203;28;20063;-30
2023/06/20 07:31:24;;;;;;;5.25;2.95;;;23.70;99.90;;;;;;5060164;28;20042;-34
2023/06/20 07:33:49;;;;;;;4.72;2.90;;;23.70;99.90;;;;;;5070598;28;20021;-34
2023/06/20 07:36:15;;;;;;;4.13;2.97;;;23.80;99.90;;;;;;5078549;28;20449;-32
2023/06/20 07:38:41;;;;;;;4.13;3.00;;;24.00;99.90;;;;;;5064143;28;20035;-32
2023/06/20 07:41:07;;;;;;;3.20;2.90;;;24.30;99.90;;;;;;5058766;28;20024;-36
2023/06/20 07:43:34;;;;;;;4.32;2.95;;;24.30;99.90;;;;;;5064444;28;20112;-30
2023/06/20 07:46:03;;;;;;;4.60;2.80;;;24.40;99.90;;;;;;5070547;28;20028;-31
2023/06/20 07:48:29;;;;;;;4.07;2.80;;;24.70;99.90;;;;;;5070817;28;20043;-31
2023/06/20 07:50:59;;;;;;;4.30;2.78;;;24.70;99.90;;;;;;5082144;28;20031;-31
2023/06/20 07:53:25;;;;;;;3.85;2.67;;;24.80;99.90;;;;;;5081098;28;20059;-31
2023/06/20 07:55:53;;;;;;;4.45;3.35;;;25.00;99.90;;;;;;5081561;28;21077;-33
2023/06/20 07:58:20;;;;;;;3.53;3.05;;;25.30;99.90;;;;;;5089055;28;20024;-32
2023/06/20 08:00:45;;;;;;;3.53;2.70;;;25.20;99.90;;;;;;5052380;28;20767;-31
2023/06/20 08:03:11;;;;;;;3.38;2.88;;;25.30;99.90;;;;;;5068229;28;20052;-31
2023/06/20 08:05:36;;;;;;;4.35;3.33;;;25.30;99.90;;;;;;5092855;28;20031;-32
2023/06/20 08:08:02;;;;;;;4.63;2.67;;;25.60;99.90;;;;;;5092036;28;20032;-31
2023/06/20 08:10:28;;;;;;;3.53;2.83;;;25.80;99.90;;;;;;5074894;28;20024;-31
2023/06/20 08:12:54;;;;;;;3.33;3.03;;;26.10;99.90;;;;;;5074100;28;20088;-32
2023/06/20 08:15:19;;;;;;;4.55;2.97;;;26.50;99.90;;;;;;5076557;28;20031;-31
2023/06/20 08:17:45;;;;;;;3.40;2.95;;;26.70;99.90;;;;;;5079111;28;20027;-31
2023/06/20 08:20:11;;;;;;;4.47;2.72;;;26.90;99.90;;;;;;5081927;28;20496;-32
2023/06/20 08:22:37;;;;;;;3.92;2.60;;;27.00;99.90;;;;;;5083951;28;20024;-30
2023/06/20 08:25:03;;;;;;;2.85;2.55;;;27.10;99.90;;;;;;5083775;28;20029;-31
2023/06/20 08:27:32;;;;;;;3.53;2.60;;;27.10;99.90;;;;;;5069065;28;20031;-34
2023/06/20 08:29:58;;;;;;;3.25;2.42;;;27.10;99.90;;;;;;5065816;28;20723;-32
2023/06/20 08:32:23;;;;;;;3.70;2.47;;;27.20;99.90;;;;;;5080007;28;20071;-35
2023/06/20 08:34:49;;;;;;;3.42;2.50;;;27.30;99.90;;;;;;5077525;28;20379;-30
2023/06/20 08:37:21;;;;;;;5.07;2.70;;;27.20;99.90;;;;;;5071540;28;20037;-31
2023/06/20 08:39:46;;;;;;;5.10;2.85;;;27.50;99.90;;;;;;5085152;28;20019;-31
2023/06/20 08:42:12;;;;;;;4.35;2.53;;;27.80;99.90;;;;;;5083563;28;20500;-31
2023/06/20 08:44:38;;;;;;;4.15;2.88;;;27.80;99.90;;;;;;5079425;28;20485;-33
2023/06/20 08:47:04;;;;;;;3.63;2.65;;;28.30;99.90;;;;;;5087838;28;20452;-31
2023/06/20 08:49:29;;;;;;;4.30;2.47;;;28.10;99.90;;;;;;5081174;28;20035;-33
2023/06/20 08:52:01;;;;;;;3.35;2.85;;;28.10;99.90;;;;;;5067362;28;20787;-31
2023/06/20 08:54:34;;;;;;;4.45;2.60;;;28.20;99.90;;;;;;5072890;28;20115;-36
2023/06/20 08:57:00;;;;;;;5.85;2.80;;;28.00;99.90;;;;;;5065695;28;20027;-33
2023/06/20 08:59:26;;;;;;;3.40;2.50;;;27.80;99.90;;;;;;5086991;28;20058;-38
2023/06/20 09:01:55;;;;;;;5.80;2.80;;;27.60;99.90;;;;;;5088189;28;20028;-32
2023/06/20 09:04:20;;;;;;;5.03;3.00;;;27.70;99.90;;;;;;5084567;28;20024;-32
2023/06/20 09:06:50;;;;;;;3.88;2.70;;;27.90;99.90;;;;;;5077992;28;20082;-38
2023/06/20 09:09:17;;;;;;;3.65;2.38;;;27.80;99.90;;;;;;5070038;28;20051;-39
2023/06/20 09:11:52;;;;;;;2.80;2.50;;;28.10;99.90;;;;;;5083323;28;20653;-40
2023/06/20 09:14:18;;;;;;;5.30;2.88;;;28.70;99.90;;;;;;5087249;28;20028;-40
2023/06/20 09:16:47;;;;;;;4.13;2.30;;;28.60;99.90;;;;;;5088614;28;20489;-41
2023/06/20 09:19:13;;;;;;;5.32;2.80;;;28.60;99.90;;;;;;5085812;28;20041;-39
2023/06/20 09:21:39;;;;;;;5.50;3.08;;;28.60;99.90;;;;;;5082070;28;20039;-40
2023/06/20 09:24:06;;;;;;;4.47;2.92;;;28.40;99.90;;;;;;5085660;28;20083;-41
2023/06/20 09:26:32;;;;;;;4.38;3.17;;;28.40;99.90;;;;;;5084288;28;20028;-40
2023/06/20 09:29:14;;;;;;;3.95;2.60;;;28.30;99.90;;;;;;5082474;28;20405;-36
2023/06/20 09:31:45;;;;;;;6.25;2.70;;;28.20;99.90;;;;;;5081919;28;20031;-40
2023/06/20 09:34:13;;;;;;;3.85;2.53;;;28.80;99.90;;;;;;5082835;28;20543;-39
2023/06/20 09:36:39;;;;;;;;;;;29.00;99.90;;;;;;5085535;28;20032;-40
2023/06/20 09:39:13;;;;;;;5.10;2.92;;;28.70;99.90;;;;;;5089182;28;19912;-39
2023/06/20 09:41:46;;;;;;;4.13;2.92;;;28.40;99.90;;;;;;5082832;28;20033;-41
2023/06/20 09:44:13;;;;;;;3.58;2.55;;;28.40;99.90;;;;;;5087332;28;20039;-39
2023/06/20 09:46:39;;;;;;;4.03;2.53;;;28.60;99.90;;;;;;5083915;28;20024;-41
2023/06/20 09:49:05;;;;;;;3.70;2.22;;;29.10;99.90;;;;;;5084190;28;20268;-37
2023/06/20 09:51:37;;;;;;;3.25;2.30;;;29.60;99.90;;;;;;5086081;28;20040;-41
2023/06/20 09:54:11;;;;;;;3.53;2.50;;;29.30;99.90;;;;;;5077813;28;20060;-40
2023/06/20 09:56:47;;;;;;;3.15;2.05;;;29.10;99.90;;;;;;5078130;28;20039;-40
2023/06/20 09:59:15;;;;;;;3.45;2.65;;;29.20;99.90;;;;;;5086700;28;20044;-40
2023/06/20 10:01:42;;;;;;;3.95;2.45;;;28.80;99.90;;;;;;5093568;28;20135;-38
2023/06/20 10:04:08;;;;;;;4.53;2.33;;;29.40;99.90;;;;;;5089807;28;20036;-40
2023/06/20 10:06:37;;;;;;;4.55;2.10;;;29.90;99.90;;;;;;5095606;28;20122;-40
2023/06/20 10:09:07;;;;;;;4.45;2.30;;;30.10;99.90;;;;;;5088776;28;20142;-40
2023/06/20 10:11:38;;;;;;;4.32;2.15;;;29.80;99.90;;;;;;5074989;28;20032;-39
2023/06/20 10:14:04;;;;;;;3.78;2.10;;;30.20;99.90;;;;;;5085214;28;20036;-41
2023/06/20 10:16:30;;;;;;;3.10;2.30;;;30.30;99.90;;;;;;5084820;28;20410;-41
2023/06/20 10:18:56;;;;;;;2.30;1.70;;;30.60;99.90;;;;;;5085038;28;20032;-40
2023/06/20 10:21:53;;;;;;;4.05;2.30;;;30.30;99.90;;;;;;5085946;28;20040;-33
2023/06/20 10:24:19;;;;;;;2.53;2.10;;;29.80;99.90;;;;;;5086496;28;20020;-33
2023/06/20 10:26:49;;;;;;;3.15;2.25;;;29.50;99.90;;;;;;5086681;28;20086;-31
2023/06/20 10:29:14;;;;;;;4.63;2.10;;;29.40;99.90;;;;;;5082385;28;20028;-34
2023/06/20 10:32:04;;;;;;;3.22;1.88;;;29.70;99.90;;;;;;5086653;28;20404;-33
2023/06/20 10:34:33;;;;;;;3.53;2.00;;;30.30;99.90;;;;;;5078562;28;20043;-31
2023/06/20 10:37:36;;;;;;;3.42;2.10;;;30.40;99.90;;;;;;5085536;28;20064;-32
2023/06/20 10:40:04;;;;;;;7.47;2.50;;;30.20;99.90;;;;;;5050694;28;20032;-33
2023/06/20 10:42:38;;;;;;;5.07;2.25;;;30.60;99.90;;;;;;5087109;28;20489;-31
2023/06/20 10:45:25;;;;;;;3.88;2.20;;;30.50;99.90;;;;;;5084922;28;20763;-30
2023/06/20 10:47:55;;;;;;;3.15;2.25;;;30.50;99.90;;;;;;5078450;28;20054;-31
2023/06/20 10:50:21;;;;;;;3.28;2.28;;;30.80;99.90;;;;;;5086685;28;20106;-32
2023/06/20 10:52:47;;;;;;;5.35;2.30;;;30.40;99.90;;;;;;5076124;28;20044;-34
2023/06/20 10:55:26;;;;;;;4.43;2.07;;;30.60;99.90;;;;;;5049777;28;20349;-32
2023/06/20 10:57:52;;;;;;;3.15;1.77;;;30.40;99.90;;;;;;5071354;28;20266;-32
2023/06/20 11:00:21;;;;;;;3.83;2.30;;;30.50;99.90;;;;;;5059360;28;20049;-31
2023/06/20 11:02:51;;;;;;;6.72;2.35;;;31.10;99.90;;;;;;5060685;28;20301;-32
2023/06/20 11:05:17;;;;;;;5.72;2.60;;;31.10;99.90;;;;;;5050698;28;20059;-32
2023/06/20 11:08:00;;;;;;;4.28;1.98;;;31.30;99.90;;;;;;5056422;28;20036;-34
2023/06/20 11:10:26;;;;;;;7.63;2.72;;;31.60;99.90;;;;;;5048351;28;20024;-34
2023/06/20 11:12:52;;;;;;;3.05;2.25;;;31.60;99.90;;;;;;5068986;28;20031;-32
2023/06/20 11:15:26;;;;;;;4.50;2.25;;;31.40;99.90;;;;;;5056689;28;20029;-31
2023/06/20 11:17:52;;;;;;;3.97;2.33;;;31.30;99.90;;;;;;5067746;28;20029;-34
2023/06/20 11:20:19;;;;;;;5.10;2.50;;;31.30;99.90;;;;;;5069769;28;20382;-33
2023/06/20 11:22:49;;;;;;;6.43;2.30;;;30.80;99.90;;;;;;5068914;28;20063;-31
2023/06/20 11:25:25;;;;;;;4.03;2.22;;;30.70;99.90;;;;;;5067589;28;20477;-31
2023/06/20 11:27:51;;;;;;;4.53;2.58;;;30.00;99.90;;;;;;5067774;28;20020;-32
2023/06/20 11:30:23;;;;;;;6.32;3.17;;;30.10;99.90;;;;;;5061184;28;20024;-33
2023/06/20 11:33:10;;;;;;;4.65;2.25;;;30.70;99.90;;;;;;5065044;28;20032;-31
2023/06/20 11:35:42;;;;;;;4.07;2.20;;;30.40;99.90;;;;;;5071558;28;20025;-36
2023/06/20 11:38:10;;;;;;;4.78;2.58;;;30.20;99.90;;;;;;5066246;28;20119;-34
2023/06/20 11:40:36;;;;;;;5.35;2.50;;;30.00;99.90;;;;;;5063330;28;20116;-34
2023/06/20 11:43:02;;;;;;;6.07;3.30;;;30.00;99.90;;;;;;5072007;28;20120;-35
2023/06/20 11:45:28;;;;;;;5.28;2.42;;;30.20;99.90;;;;;;5062805;28;20727;-32
2023/06/20 11:48:14;;;;;;;4.43;2.65;;;30.40;99.90;;;;;;5067435;28;20051;-37
2023/06/20 11:50:44;;;;;;;4.20;2.15;;;30.60;99.90;;;;;;5065501;28;20037;-32
2023/06/20 11:53:25;;;;;;;4.03;2.47;;;30.60;99.90;;;;;;5083158;28;20089;-33
2023/06/20 11:55:59;;;;;;;3.95;2.28;;;30.90;99.90;;;;;;5078548;28;20040;-32
2023/06/20 11:58:26;;;;;;;3.95;2.25;;;31.20;99.90;;;;;;5086022;28;20028;-32
2023/06/20 12:01:14;;;;;;;4.20;2.38;;;31.40;99.90;;;;;;5084313;28;20037;-32
2023/06/20 12:03:42;;;;;;;6.15;2.33;;;31.70;99.90;;;;;;5074045;28;20073;-32
2023/06/20 12:06:28;;;;;;;6.57;2.50;;;31.60;99.90;;;;;;5066761;28;20427;-33
2023/06/20 12:09:02;;;;;;;5.43;2.67;;;31.20;99.90;;;;;;5075697;28;20104;-32
2023/06/20 12:11:28;;;;;;;4.72;2.58;;;30.80;99.90;;;;;;5083558;28;20051;-30
2023/06/20 12:13:55;;;;;;;5.57;2.55;;;30.60;99.90;;;;;;5083828;28;20036;-30
2023/06/20 12:16:22;;;;;;;5.25;2.53;;;30.80;99.90;;;;;;5081696;28;20028;-33
2023/06/20 12:18:51;;;;;;;6.35;2.70;;;31.00;99.90;;;;;;5078795;28;20028;-30
2023/06/20 12:21:18;;;;;;;5.30;2.47;;;31.20;99.90;;;;;;5066433;28;20105;-34
2023/06/20 12:23:43;;;;;;;6.03;2.50;;;31.20;99.90;;;;;;5084460;28;20042;-32
2023/06/20 12:26:09;;;;;;;3.70;2.25;;;31.50;99.90;;;;;;5081177;28;20028;-30
2023/06/20 12:28:36;;;;;;;5.45;2.90;;;31.50;99.90;;;;;;5080311;28;20059;-31
2023/06/20 12:31:03;;;;;;;6.07;2.65;;;31.40;99.90;;;;;;5076699;28;20035;-35
2023/06/20 12:33:29;;;;;;;4.50;2.40;;;31.20;99.90;;;;;;5079858;28;20031;-31
2023/06/20 12:35:55;;;;;;;4.75;2.83;;;31.40;99.90;;;;;;5063646;28;20110;-34
2023/06/20 12:38:21;;;;;;;4.97;2.22;;;31.50;99.90;;;;;;5080655;28;20394;-31
2023/06/20 12:40:46;;;;;;;6.18;2.80;;;31.50;99.90;;;;;;5083839;28;20051;-41
2023/06/20 12:43:12;;;;;;;5.32;2.88;;;31.30;99.90;;;;;;5083468;28;20435;-36
2023/06/20 12:45:38;;;;;;;2.83;2.15;;;31.30;99.90;;;;;;5079098;28;20031;-41
2023/06/20 12:48:03;;;;;;;5.13;2.47;;;31.30;99.90;;;;;;5080340;28;20082;-40
2023/06/20 12:50:31;;;;;;;5.57;2.60;;;31.50;99.90;;;;;;5077773;28;20026;-41
2023/06/20 12:52:57;;;;;;;6.75;2.50;;;31.50;99.90;;;;;;5080229;28;20531;-39
2023/06/20 12:55:23;;;;;;;6.20;2.60;;;31.70;99.90;;;;;;5083200;28;20386;-40